This is the latest recevied weather packets stored in our database for station/object N8QQQ. If no packets are shown the sender has not sent any weather packets the latest 1 day(s).
| Time | Temp. | Humidity | Pressure | Rain* | Wind** | Luminosity | Snow |
|---|---|---|---|---|---|---|---|
| 1836274663 | 12.22° C | 97% | 1022.1 hPa | 0 mm | 0 m/s | 0 W/m² | - |
| 1836274516 | 12.22° C | 98% | 1022.1 hPa | 0 mm | 0 m/s | 0 W/m² | - |
| 1836274361 | 12.78° C | 97% | 1022.3 hPa | 0 mm | 0 m/s | 0 W/m² | - |
| 1836274214 | 12.22° C | 98% | 1022.1 hPa | 0 mm | 0 m/s | 0 W/m² | - |
| 1836274059 | 12.78° C | 97% | 1022.3 hPa | 0 mm | 0 m/s | 0 W/m² | - |
| 1778047891 | -5° C | 92% | 1009.8 hPa | 0 mm | 0 m/s | 0 W/m² | - |
| 1778047589 | -5° C | 93% | 1010.1 hPa | 0 mm | 0 m/s | 0 W/m² | - |
| 1778047286 | -5° C | 92% | 1009.9 hPa | 0 mm | 0 m/s | 0 W/m² | - |
| 1778046983 | -5° C | 92% | 1009.9 hPa | 0 mm | 0 m/s | 0 W/m² | - |
| 1778046680 | -5° C | 91% | 1010 hPa | 0 mm | 0 m/s | 0 W/m² | - |
| 1778046377 | -5° C | 91% | 1010 hPa | 0 mm | 0 m/s | 0 W/m² | - |
| 1778046073 | -5° C | 91% | 1010 hPa | 0 mm | 0 m/s | 0 W/m² | - |
| 1778045771 | -5° C | 90% | 1009.9 hPa | 0 mm | 0 m/s | 0 W/m² | - |
| 1778045469 | -4.44° C | 90% | 1010 hPa | 0 mm | 0 m/s | 0 W/m² | - |
| 1778045167 | -5° C | 90% | 1009.7 hPa | 0 mm | 0 m/s | 0 W/m² | - |
| 1778044865 | -4.44° C | 89% | 1010 hPa | 0 mm | 0 m/s | 0 W/m² | - |
| 1778044561 | -4.44° C | 88% | 1009.5 hPa | 0 mm | 0 m/s | 0 W/m² | - |
| 1778044258 | -4.44° C | 88% | 1009.9 hPa | 0 mm | 0 m/s | 0 W/m² | - |
| 1778043956 | -4.44° C | 88% | 1009.9 hPa | 0 mm | 0 m/s | 0 W/m² | - |
| 1778043653 | -4.44° C | 87% | 1009.7 hPa | 0 mm | 0 m/s | 0 W/m² | - |
| 1778043349 | -4.44° C | 87% | 1009.8 hPa | 0 mm | 0 m/s | 0 W/m² | - |
| 1778043046 | -4.44° C | 86% | 1009.8 hPa | 0 mm | 0 m/s | 0 W/m² | - |
| 1778042744 | -4.44° C | 86% | 1009.8 hPa | 0 mm | 0 m/s | 0 W/m² | - |
| 1778042441 | -4.44° C | 85% | 1009.9 hPa | 0 mm | 0 m/s | 0 W/m² | - |
| 1778042138 | -4.44° C | 85% | 1010 hPa | 0 mm | 0 m/s | 0 W/m² | - |
* Rain latest hour (hover to see other rain measurements)
** Current wind speed in m/s (hover to see current wind gust speed)